sensor_id;sensor_type;location;lat;lon;timestamp;P1;durP1;ratioP1;P2;durP2;ratioP2
60018;SDS011;45870;42.528;26.740;2023-04-01T00:00:19;19.13;;;6.38;;
60018;SDS011;45870;42.528;26.740;2023-04-01T00:02:45;12.23;;;6.65;;
60018;SDS011;45870;42.528;26.740;2023-04-01T00:05:12;11.93;;;6.28;;
60018;SDS011;45870;42.528;26.740;2023-04-01T00:07:38;11.25;;;7.13;;
60018;SDS011;45870;42.528;26.740;2023-04-01T00:10:06;14.15;;;6.80;;
60018;SDS011;45870;42.528;26.740;2023-04-01T00:12:34;12.73;;;7.28;;
60018;SDS011;45870;42.528;26.740;2023-04-01T00:15:00;12.27;;;7.00;;
60018;SDS011;45870;42.528;26.740;2023-04-01T00:17:26;13.55;;;7.78;;
60018;SDS011;45870;42.528;26.740;2023-04-01T00:19:54;12.50;;;6.53;;
60018;SDS011;45870;42.528;26.740;2023-04-01T00:22:21;16.40;;;6.95;;
60018;SDS011;45870;42.528;26.740;2023-04-01T00:24:47;13.63;;;6.57;;
60018;SDS011;45870;42.528;26.740;2023-04-01T00:27:13;14.48;;;8.02;;
60018;SDS011;45870;42.528;26.740;2023-04-01T00:29:42;22.65;;;11.57;;
60018;SDS011;45870;42.528;26.740;2023-04-01T00:32:09;14.73;;;8.05;;
60018;SDS011;45870;42.528;26.740;2023-04-01T00:34:35;12.88;;;7.10;;
60018;SDS011;45870;42.528;26.740;2023-04-01T00:37:02;12.90;;;6.75;;
60018;SDS011;45870;42.528;26.740;2023-04-01T00:39:31;14.75;;;7.45;;
60018;SDS011;45870;42.528;26.740;2023-04-01T00:41:58;14.80;;;7.88;;
60018;SDS011;45870;42.528;26.740;2023-04-01T00:44:26;17.02;;;8.20;;
60018;SDS011;45870;42.528;26.740;2023-04-01T00:46:53;19.77;;;8.23;;
60018;SDS011;45870;42.528;26.740;2023-04-01T00:49:21;18.60;;;8.43;;
60018;SDS011;45870;42.528;26.740;2023-04-01T00:51:51;16.30;;;8.15;;
60018;SDS011;45870;42.528;26.740;2023-04-01T00:54:21;18.00;;;8.20;;
60018;SDS011;45870;42.528;26.740;2023-04-01T00:56:50;16.92;;;8.30;;
60018;SDS011;45870;42.528;26.740;2023-04-01T00:59:30;19.30;;;7.38;;
60018;SDS011;45870;42.528;26.740;2023-04-01T01:02:02;19.40;;;7.80;;
60018;SDS011;45870;42.528;26.740;2023-04-01T01:04:29;15.63;;;8.10;;
60018;SDS011;45870;42.528;26.740;2023-04-01T01:26:30;15.15;;;8.77;;
60018;SDS011;45870;42.528;26.740;2023-04-01T01:31:46;15.18;;;8.48;;
60018;SDS011;45870;42.528;26.740;2023-04-01T01:37:06;15.48;;;8.23;;
60018;SDS011;45870;42.528;26.740;2023-04-01T01:39:35;15.52;;;8.23;;
60018;SDS011;45870;42.528;26.740;2023-04-01T01:42:04;17.33;;;8.82;;
60018;SDS011;45870;42.528;26.740;2023-04-01T01:44:33;15.57;;;9.13;;
60018;SDS011;45870;42.528;26.740;2023-04-01T01:47:01;16.25;;;8.77;;
60018;SDS011;45870;42.528;26.740;2023-04-01T01:49:28;20.77;;;12.07;;
60018;SDS011;45870;42.528;26.740;2023-04-01T01:51:57;17.98;;;10.50;;
60018;SDS011;45870;42.528;26.740;2023-04-01T01:54:23;16.75;;;8.80;;
60018;SDS011;45870;42.528;26.740;2023-04-01T01:56:49;19.85;;;9.60;;
60018;SDS011;45870;42.528;26.740;2023-04-01T01:59:21;14.88;;;7.93;;
60018;SDS011;45870;42.528;26.740;2023-04-01T02:01:50;14.10;;;9.30;;
60018;SDS011;45870;42.528;26.740;2023-04-01T02:04:20;16.83;;;9.13;;
60018;SDS011;45870;42.528;26.740;2023-04-01T02:06:50;17.08;;;8.65;;
60018;SDS011;45870;42.528;26.740;2023-04-01T02:09:21;15.63;;;7.90;;
60018;SDS011;45870;42.528;26.740;2023-04-01T02:11:48;13.85;;;7.88;;
60018;SDS011;45870;42.528;26.740;2023-04-01T02:14:18;17.70;;;7.25;;
60018;SDS011;45870;42.528;26.740;2023-04-01T02:16:57;12.40;;;7.97;;
60018;SDS011;45870;42.528;26.740;2023-04-01T02:19:31;14.13;;;7.95;;
60018;SDS011;45870;42.528;26.740;2023-04-01T02:22:02;12.07;;;7.10;;
60018;SDS011;45870;42.528;26.740;2023-04-01T02:24:31;14.25;;;7.60;;
60018;SDS011;45870;42.528;26.740;2023-04-01T02:27:00;13.88;;;7.53;;
60018;SDS011;45870;42.528;26.740;2023-04-01T02:29:26;12.85;;;6.85;;
60018;SDS011;45870;42.528;26.740;2023-04-01T02:31:53;12.68;;;6.63;;
60018;SDS011;45870;42.528;26.740;2023-04-01T02:34:20;15.68;;;6.95;;
60018;SDS011;45870;42.528;26.740;2023-04-01T02:36:51;14.93;;;6.75;;
60018;SDS011;45870;42.528;26.740;2023-04-01T02:39:18;14.85;;;7.72;;
60018;SDS011;45870;42.528;26.740;2023-04-01T02:41:44;20.42;;;7.00;;
60018;SDS011;45870;42.528;26.740;2023-04-01T02:44:11;13.82;;;7.88;;
60018;SDS011;45870;42.528;26.740;2023-04-01T02:46:39;18.65;;;7.75;;
60018;SDS011;45870;42.528;26.740;2023-04-01T02:49:05;14.30;;;7.07;;
60018;SDS011;45870;42.528;26.740;2023-04-01T02:51:31;14.05;;;6.18;;
60018;SDS011;45870;42.528;26.740;2023-04-01T02:53:57;12.68;;;6.60;;
60018;SDS011;45870;42.528;26.740;2023-04-01T02:56:22;11.20;;;6.35;;
60018;SDS011;45870;42.528;26.740;2023-04-01T02:58:48;11.70;;;5.78;;
60018;SDS011;45870;42.528;26.740;2023-04-01T03:01:14;11.68;;;5.53;;
60018;SDS011;45870;42.528;26.740;2023-04-01T03:03:39;10.70;;;5.97;;
60018;SDS011;45870;42.528;26.740;2023-04-01T03:06:06;9.95;;;5.45;;
60018;SDS011;45870;42.528;26.740;2023-04-01T03:08:33;10.70;;;6.05;;
60018;SDS011;45870;42.528;26.740;2023-04-01T03:11:00;11.55;;;5.70;;
60018;SDS011;45870;42.528;26.740;2023-04-01T03:13:25;10.27;;;6.57;;
60018;SDS011;45870;42.528;26.740;2023-04-01T03:15:51;10.00;;;6.35;;
60018;SDS011;45870;42.528;26.740;2023-04-01T03:18:18;11.75;;;6.57;;
60018;SDS011;45870;42.528;26.740;2023-04-01T03:20:44;14.48;;;6.72;;
60018;SDS011;45870;42.528;26.740;2023-04-01T03:23:10;10.32;;;6.65;;
60018;SDS011;45870;42.528;26.740;2023-04-01T03:25:36;13.65;;;7.18;;
60018;SDS011;45870;42.528;26.740;2023-04-01T03:28:02;14.32;;;8.55;;
60018;SDS011;45870;42.528;26.740;2023-04-01T03:30:28;15.85;;;8.48;;
60018;SDS011;45870;42.528;26.740;2023-04-01T03:32:57;15.50;;;8.85;;
60018;SDS011;45870;42.528;26.740;2023-04-01T03:35:24;14.02;;;7.80;;
60018;SDS011;45870;42.528;26.740;2023-04-01T03:37:50;13.68;;;7.90;;
60018;SDS011;45870;42.528;26.740;2023-04-01T03:40:18;16.05;;;8.23;;
60018;SDS011;45870;42.528;26.740;2023-04-01T03:42:45;14.20;;;7.25;;
60018;SDS011;45870;42.528;26.740;2023-04-01T03:45:11;17.08;;;6.78;;
60018;SDS011;45870;42.528;26.740;2023-04-01T03:47:37;12.75;;;6.80;;
60018;SDS011;45870;42.528;26.740;2023-04-01T03:50:05;15.27;;;6.32;;
60018;SDS011;45870;42.528;26.740;2023-04-01T03:52:31;9.38;;;6.13;;
60018;SDS011;45870;42.528;26.740;2023-04-01T03:54:58;11.85;;;7.57;;
60018;SDS011;45870;42.528;26.740;2023-04-01T03:57:24;9.05;;;6.18;;
60018;SDS011;45870;42.528;26.740;2023-04-01T03:59:49;9.93;;;6.05;;
60018;SDS011;45870;42.528;26.740;2023-04-01T04:02:15;14.52;;;7.15;;
60018;SDS011;45870;42.528;26.740;2023-04-01T04:04:42;11.05;;;6.85;;
60018;SDS011;45870;42.528;26.740;2023-04-01T04:07:08;18.17;;;7.47;;
60018;SDS011;45870;42.528;26.740;2023-04-01T04:09:33;17.38;;;9.00;;
60018;SDS011;45870;42.528;26.740;2023-04-01T04:11:59;17.08;;;8.38;;
60018;SDS011;45870;42.528;26.740;2023-04-01T04:14:26;12.93;;;7.22;;
60018;SDS011;45870;42.528;26.740;2023-04-01T04:16:52;15.02;;;8.13;;
60018;SDS011;45870;42.528;26.740;2023-04-01T04:19:17;13.95;;;7.95;;
60018;SDS011;45870;42.528;26.740;2023-04-01T04:21:43;17.98;;;10.23;;
60018;SDS011;45870;42.528;26.740;2023-04-01T04:24:09;18.40;;;10.93;;
60018;SDS011;45870;42.528;26.740;2023-04-01T04:26:35;19.77;;;11.38;;
60018;SDS011;45870;42.528;26.740;2023-04-01T04:29:01;18.23;;;11.70;;
60018;SDS011;45870;42.528;26.740;2023-04-01T04:31:28;18.10;;;11.73;;
60018;SDS011;45870;42.528;26.740;2023-04-01T04:33:54;18.92;;;11.85;;
60018;SDS011;45870;42.528;26.740;2023-04-01T04:36:20;21.50;;;12.43;;
60018;SDS011;45870;42.528;26.740;2023-04-01T04:38:47;21.90;;;14.27;;
60018;SDS011;45870;42.528;26.740;2023-04-01T04:41:13;22.38;;;13.52;;
60018;SDS011;45870;42.528;26.740;2023-04-01T04:43:41;17.67;;;13.57;;
60018;SDS011;45870;42.528;26.740;2023-04-01T04:46:10;19.55;;;13.23;;
60018;SDS011;45870;42.528;26.740;2023-04-01T04:48:35;15.00;;;11.38;;
60018;SDS011;45870;42.528;26.740;2023-04-01T04:51:02;16.02;;;10.85;;
60018;SDS011;45870;42.528;26.740;2023-04-01T04:53:28;17.40;;;10.48;;
60018;SDS011;45870;42.528;26.740;2023-04-01T04:55:53;14.30;;;10.05;;
60018;SDS011;45870;42.528;26.740;2023-04-01T04:58:19;19.23;;;9.98;;
60018;SDS011;45870;42.528;26.740;2023-04-01T05:00:45;18.48;;;10.13;;
60018;SDS011;45870;42.528;26.740;2023-04-01T05:03:14;18.85;;;10.45;;
60018;SDS011;45870;42.528;26.740;2023-04-01T05:05:47;14.38;;;10.10;;
60018;SDS011;45870;42.528;26.740;2023-04-01T05:08:14;17.20;;;10.40;;
60018;SDS011;45870;42.528;26.740;2023-04-01T05:10:40;14.90;;;10.05;;
60018;SDS011;45870;42.528;26.740;2023-04-01T05:13:05;24.80;;;15.23;;
60018;SDS011;45870;42.528;26.740;2023-04-01T05:15:32;14.98;;;10.50;;
60018;SDS011;45870;42.528;26.740;2023-04-01T05:17:58;25.95;;;14.60;;
60018;SDS011;45870;42.528;26.740;2023-04-01T05:20:23;18.00;;;10.40;;
60018;SDS011;45870;42.528;26.740;2023-04-01T05:22:49;16.75;;;8.13;;
60018;SDS011;45870;42.528;26.740;2023-04-01T05:25:15;12.50;;;8.57;;
60018;SDS011;45870;42.528;26.740;2023-04-01T05:27:41;16.05;;;8.77;;
60018;SDS011;45870;42.528;26.740;2023-04-01T05:30:06;16.88;;;8.98;;
60018;SDS011;45870;42.528;26.740;2023-04-01T05:32:32;14.40;;;8.15;;
60018;SDS011;45870;42.528;26.740;2023-04-01T05:34:58;13.98;;;8.52;;
60018;SDS011;45870;42.528;26.740;2023-04-01T05:37:24;15.63;;;9.10;;
60018;SDS011;45870;42.528;26.740;2023-04-01T05:39:50;14.73;;;8.95;;
60018;SDS011;45870;42.528;26.740;2023-04-01T05:42:15;14.13;;;8.90;;
60018;SDS011;45870;42.528;26.740;2023-04-01T05:44:41;16.83;;;10.82;;
60018;SDS011;45870;42.528;26.740;2023-04-01T05:47:07;20.23;;;15.02;;
60018;SDS011;45870;42.528;26.740;2023-04-01T05:49:32;19.80;;;12.38;;
60018;SDS011;45870;42.528;26.740;2023-04-01T05:51:59;15.77;;;11.32;;
60018;SDS011;45870;42.528;26.740;2023-04-01T05:54:24;18.02;;;11.32;;
60018;SDS011;45870;42.528;26.740;2023-04-01T05:56:50;15.77;;;10.80;;
60018;SDS011;45870;42.528;26.740;2023-04-01T05:59:16;18.42;;;10.68;;
60018;SDS011;45870;42.528;26.740;2023-04-01T06:01:42;14.18;;;9.82;;
60018;SDS011;45870;42.528;26.740;2023-04-01T06:04:10;13.48;;;9.02;;
60018;SDS011;45870;42.528;26.740;2023-04-01T06:06:41;17.63;;;9.20;;
60018;SDS011;45870;42.528;26.740;2023-04-01T06:09:12;14.90;;;9.43;;
60018;SDS011;45870;42.528;26.740;2023-04-01T06:25:31;14.90;;;8.77;;
60018;SDS011;45870;42.528;26.740;2023-04-01T06:41:39;10.07;;;6.38;;
60018;SDS011;45870;42.528;26.740;2023-04-01T06:44:39;12.90;;;6.32;;
60018;SDS011;45870;42.528;26.740;2023-04-01T06:47:28;11.55;;;6.20;;
60018;SDS011;45870;42.528;26.740;2023-04-01T06:55:40;10.73;;;6.60;;
60018;SDS011;45870;42.528;26.740;2023-04-01T06:58:27;8.90;;;5.97;;
60018;SDS011;45870;42.528;26.740;2023-04-01T07:01:02;13.02;;;5.70;;
60018;SDS011;45870;42.528;26.740;2023-04-01T07:06:02;11.25;;;5.05;;
60018;SDS011;45870;42.528;26.740;2023-04-01T07:08:29;8.73;;;4.43;;
60018;SDS011;45870;42.528;26.740;2023-04-01T07:11:04;12.55;;;4.03;;
60018;SDS011;45870;42.528;26.740;2023-04-01T07:13:45;8.43;;;4.32;;
60018;SDS011;45870;42.528;26.740;2023-04-01T07:16:16;7.95;;;4.40;;
60018;SDS011;45870;42.528;26.740;2023-04-01T07:24:25;12.68;;;3.10;;
60018;SDS011;45870;42.528;26.740;2023-04-01T07:26:55;8.63;;;2.85;;
60018;SDS011;45870;42.528;26.740;2023-04-01T07:29:22;10.50;;;3.50;;
60018;SDS011;45870;42.528;26.740;2023-04-01T07:31:57;11.07;;;3.65;;
60018;SDS011;45870;42.528;26.740;2023-04-01T07:34:51;16.70;;;3.58;;
60018;SDS011;45870;42.528;26.740;2023-04-01T07:40:18;9.88;;;4.25;;
60018;SDS011;45870;42.528;26.740;2023-04-01T07:45:53;11.55;;;4.07;;
60018;SDS011;45870;42.528;26.740;2023-04-01T07:48:41;12.85;;;4.25;;
60018;SDS011;45870;42.528;26.740;2023-04-01T07:51:21;15.55;;;4.50;;
60018;SDS011;45870;42.528;26.740;2023-04-01T08:05:09;9.82;;;3.42;;
60018;SDS011;45870;42.528;26.740;2023-04-01T08:13:44;10.18;;;3.50;;
60018;SDS011;45870;42.528;26.740;2023-04-01T08:16:31;9.48;;;3.63;;
60018;SDS011;45870;42.528;26.740;2023-04-01T08:22:20;9.15;;;3.20;;
60018;SDS011;45870;42.528;26.740;2023-04-01T08:24:53;8.80;;;3.40;;
60018;SDS011;45870;42.528;26.740;2023-04-01T08:27:34;12.60;;;3.63;;
60018;SDS011;45870;42.528;26.740;2023-04-01T08:30:19;13.85;;;6.07;;
60018;SDS011;45870;42.528;26.740;2023-04-01T08:32:53;10.32;;;3.58;;
60018;SDS011;45870;42.528;26.740;2023-04-01T08:38:06;12.90;;;3.10;;
60018;SDS011;45870;42.528;26.740;2023-04-01T08:56:47;9.23;;;3.28;;
60018;SDS011;45870;42.528;26.740;2023-04-01T09:05:43;12.75;;;3.05;;
60018;SDS011;45870;42.528;26.740;2023-04-01T09:08:35;5.97;;;2.57;;
60018;SDS011;45870;42.528;26.740;2023-04-01T09:11:13;10.05;;;3.15;;
60018;SDS011;45870;42.528;26.740;2023-04-01T09:17:04;11.30;;;3.13;;
60018;SDS011;45870;42.528;26.740;2023-04-01T09:19:48;9.68;;;3.15;;
60018;SDS011;45870;42.528;26.740;2023-04-01T09:22:37;8.32;;;3.08;;
60018;SDS011;45870;42.528;26.740;2023-04-01T09:28:10;8.88;;;3.33;;
60018;SDS011;45870;42.528;26.740;2023-04-01T09:33:27;17.70;;;3.38;;
60018;SDS011;45870;42.528;26.740;2023-04-01T09:50:14;11.13;;;3.53;;
60018;SDS011;45870;42.528;26.740;2023-04-01T09:52:58;14.32;;;3.85;;
60018;SDS011;45870;42.528;26.740;2023-04-01T09:58:56;10.82;;;3.33;;
60018;SDS011;45870;42.528;26.740;2023-04-01T10:18:47;16.50;;;4.57;;
60018;SDS011;45870;42.528;26.740;2023-04-01T10:27:30;12.20;;;4.03;;
60018;SDS011;45870;42.528;26.740;2023-04-01T10:40:53;15.35;;;3.15;;
60018;SDS011;45870;42.528;26.740;2023-04-01T10:46:35;10.75;;;2.85;;
60018;SDS011;45870;42.528;26.740;2023-04-01T10:52:32;12.25;;;3.63;;
60018;SDS011;45870;42.528;26.740;2023-04-01T10:55:35;10.48;;;2.50;;
60018;SDS011;45870;42.528;26.740;2023-04-01T11:06:24;9.07;;;2.38;;
60018;SDS011;45870;42.528;26.740;2023-04-01T11:11:59;12.18;;;3.05;;
60018;SDS011;45870;42.528;26.740;2023-04-01T11:20:32;13.95;;;2.55;;
60018;SDS011;45870;42.528;26.740;2023-04-01T11:34:07;19.75;;;3.22;;
60018;SDS011;45870;42.528;26.740;2023-04-01T11:39:19;16.73;;;2.78;;
60018;SDS011;45870;42.528;26.740;2023-04-01T11:47:19;12.73;;;3.03;;
60018;SDS011;45870;42.528;26.740;2023-04-01T11:53:12;20.33;;;3.17;;
60018;SDS011;45870;42.528;26.740;2023-04-01T12:01:23;9.35;;;2.65;;
60018;SDS011;45870;42.528;26.740;2023-04-01T12:11:52;15.70;;;2.88;;
60018;SDS011;45870;42.528;26.740;2023-04-01T12:16:55;13.45;;;3.50;;
60018;SDS011;45870;42.528;26.740;2023-04-01T12:22:23;16.08;;;2.90;;
60018;SDS011;45870;42.528;26.740;2023-04-01T12:25:21;16.88;;;2.95;;
60018;SDS011;45870;42.528;26.740;2023-04-01T12:31:10;17.38;;;3.10;;
60018;SDS011;45870;42.528;26.740;2023-04-01T12:34:00;13.75;;;3.13;;
60018;SDS011;45870;42.528;26.740;2023-04-01T12:37:02;18.42;;;3.30;;
60018;SDS011;45870;42.528;26.740;2023-04-01T12:39:42;16.88;;;3.70;;
60018;SDS011;45870;42.528;26.740;2023-04-01T12:44:54;17.00;;;2.90;;
60018;SDS011;45870;42.528;26.740;2023-04-01T12:55:35;20.17;;;3.42;;
60018;SDS011;45870;42.528;26.740;2023-04-01T13:15:26;15.02;;;3.55;;
60018;SDS011;45870;42.528;26.740;2023-04-01T13:21:03;16.60;;;3.60;;
60018;SDS011;45870;42.528;26.740;2023-04-01T13:26:34;14.73;;;3.17;;
60018;SDS011;45870;42.528;26.740;2023-04-01T13:29:22;16.67;;;3.80;;
60018;SDS011;45870;42.528;26.740;2023-04-01T13:32:13;17.85;;;3.78;;
60018;SDS011;45870;42.528;26.740;2023-04-01T13:37:47;17.25;;;3.65;;
60018;SDS011;45870;42.528;26.740;2023-04-01T13:43:24;16.30;;;3.72;;
60018;SDS011;45870;42.528;26.740;2023-04-01T13:59:40;17.88;;;3.70;;
60018;SDS011;45870;42.528;26.740;2023-04-01T14:02:29;16.30;;;3.72;;
60018;SDS011;45870;42.528;26.740;2023-04-01T14:10:18;18.85;;;3.42;;
60018;SDS011;45870;42.528;26.740;2023-04-01T14:16:13;17.13;;;3.83;;
60018;SDS011;45870;42.528;26.740;2023-04-01T14:27:50;20.20;;;3.60;;
60018;SDS011;45870;42.528;26.740;2023-04-01T14:30:43;15.18;;;3.63;;
60018;SDS011;45870;42.528;26.740;2023-04-01T14:38:47;13.13;;;2.92;;
60018;SDS011;45870;42.528;26.740;2023-04-01T14:41:38;19.25;;;3.05;;
60018;SDS011;45870;42.528;26.740;2023-04-01T14:44:23;17.25;;;3.63;;
60018;SDS011;45870;42.528;26.740;2023-04-01T14:47:39;20.83;;;3.65;;
60018;SDS011;45870;42.528;26.740;2023-04-01T14:50:14;11.10;;;3.13;;
60018;SDS011;45870;42.528;26.740;2023-04-01T14:52:55;21.38;;;3.28;;
60018;SDS011;45870;42.528;26.740;2023-04-01T14:58:09;16.10;;;4.10;;
60018;SDS011;45870;42.528;26.740;2023-04-01T15:00:48;18.42;;;3.53;;
60018;SDS011;45870;42.528;26.740;2023-04-01T15:03:19;17.00;;;3.78;;
60018;SDS011;45870;42.528;26.740;2023-04-01T15:14:00;16.45;;;3.13;;
60018;SDS011;45870;42.528;26.740;2023-04-01T15:36:15;11.57;;;2.70;;
60018;SDS011;45870;42.528;26.740;2023-04-01T15:41:43;22.00;;;3.13;;
60018;SDS011;45870;42.528;26.740;2023-04-01T15:58:19;17.23;;;3.80;;
60018;SDS011;45870;42.528;26.740;2023-04-01T16:18:32;16.40;;;2.90;;
60018;SDS011;45870;42.528;26.740;2023-04-01T16:21:33;16.35;;;2.50;;
60018;SDS011;45870;42.528;26.740;2023-04-01T16:29:40;18.05;;;2.83;;
60018;SDS011;45870;42.528;26.740;2023-04-01T16:37:29;17.47;;;3.43;;
60018;SDS011;45870;42.528;26.740;2023-04-01T16:40:16;18.02;;;3.53;;
60018;SDS011;45870;42.528;26.740;2023-04-01T16:43:13;18.20;;;3.40;;
60018;SDS011;45870;42.528;26.740;2023-04-01T16:48:36;15.68;;;3.63;;
60018;SDS011;45870;42.528;26.740;2023-04-01T16:51:17;13.18;;;3.80;;
60018;SDS011;45870;42.528;26.740;2023-04-01T16:54:10;13.70;;;3.92;;
60018;SDS011;45870;42.528;26.740;2023-04-01T16:56:39;15.13;;;4.43;;
60018;SDS011;45870;42.528;26.740;2023-04-01T16:59:29;13.63;;;5.60;;
60018;SDS011;45870;42.528;26.740;2023-04-01T17:02:02;16.20;;;5.13;;
60018;SDS011;45870;42.528;26.740;2023-04-01T17:04:34;12.65;;;5.57;;
60018;SDS011;45870;42.528;26.740;2023-04-01T17:13:19;10.15;;;4.15;;
60018;SDS011;45870;42.528;26.740;2023-04-01T17:16:00;12.65;;;4.45;;
60018;SDS011;45870;42.528;26.740;2023-04-01T17:18:34;17.42;;;4.60;;
60018;SDS011;45870;42.528;26.740;2023-04-01T17:21:27;12.77;;;4.50;;
60018;SDS011;45870;42.528;26.740;2023-04-01T17:26:45;16.52;;;5.68;;
60018;SDS011;45870;42.528;26.740;2023-04-01T17:32:08;16.00;;;4.35;;
60018;SDS011;45870;42.528;26.740;2023-04-01T17:34:48;16.25;;;4.35;;
60018;SDS011;45870;42.528;26.740;2023-04-01T17:40:24;10.05;;;4.25;;
60018;SDS011;45870;42.528;26.740;2023-04-01T17:43:03;14.27;;;5.05;;
60018;SDS011;45870;42.528;26.740;2023-04-01T17:51:43;14.85;;;4.70;;
60018;SDS011;45870;42.528;26.740;2023-04-01T18:00:18;5.85;;;2.40;;
60018;SDS011;45870;42.528;26.740;2023-04-01T18:06:04;5.90;;;2.28;;
60018;SDS011;45870;42.528;26.740;2023-04-01T18:11:34;5.18;;;2.10;;
60018;SDS011;45870;42.528;26.740;2023-04-01T18:25:55;6.07;;;2.33;;
60018;SDS011;45870;42.528;26.740;2023-04-01T18:28:38;6.40;;;1.90;;
60018;SDS011;45870;42.528;26.740;2023-04-01T18:31:14;7.53;;;2.58;;
60018;SDS011;45870;42.528;26.740;2023-04-01T18:33:46;10.32;;;3.53;;
60018;SDS011;45870;42.528;26.740;2023-04-01T18:41:49;7.70;;;3.65;;
60018;SDS011;45870;42.528;26.740;2023-04-01T18:44:28;6.50;;;2.92;;
60018;SDS011;45870;42.528;26.740;2023-04-01T18:55:54;2.53;;;1.52;;
60018;SDS011;45870;42.528;26.740;2023-04-01T19:01:06;4.88;;;1.60;;
60018;SDS011;45870;42.528;26.740;2023-04-01T19:09:25;3.17;;;2.00;;
60018;SDS011;45870;42.528;26.740;2023-04-01T19:12:20;4.47;;;2.00;;
60018;SDS011;45870;42.528;26.740;2023-04-01T19:20:20;4.57;;;1.88;;
60018;SDS011;45870;42.528;26.740;2023-04-01T19:23:09;6.07;;;2.15;;
60018;SDS011;45870;42.528;26.740;2023-04-01T19:25:49;5.63;;;3.45;;
60018;SDS011;45870;42.528;26.740;2023-04-01T19:28:24;10.50;;;4.60;;
60018;SDS011;45870;42.528;26.740;2023-04-01T19:30:59;13.40;;;5.95;;
60018;SDS011;45870;42.528;26.740;2023-04-01T19:36:21;12.10;;;7.18;;
60018;SDS011;45870;42.528;26.740;2023-04-01T19:44:20;13.15;;;6.35;;
60018;SDS011;45870;42.528;26.740;2023-04-01T19:57:51;8.55;;;6.20;;
60018;SDS011;45870;42.528;26.740;2023-04-01T20:00:24;10.32;;;7.63;;
60018;SDS011;45870;42.528;26.740;2023-04-01T20:03:01;8.35;;;5.68;;
60018;SDS011;45870;42.528;26.740;2023-04-01T20:08:36;6.53;;;3.75;;
60018;SDS011;45870;42.528;26.740;2023-04-01T20:22:28;9.30;;;6.55;;
60018;SDS011;45870;42.528;26.740;2023-04-01T20:25:12;10.68;;;7.47;;
60018;SDS011;45870;42.528;26.740;2023-04-01T20:27:52;13.70;;;8.15;;
60018;SDS011;45870;42.528;26.740;2023-04-01T20:33:21;10.90;;;7.30;;
60018;SDS011;45870;42.528;26.740;2023-04-01T20:44:32;12.00;;;8.00;;
60018;SDS011;45870;42.528;26.740;2023-04-01T20:50:27;13.13;;;8.43;;
60018;SDS011;45870;42.528;26.740;2023-04-01T20:53:04;14.88;;;8.20;;
60018;SDS011;45870;42.528;26.740;2023-04-01T21:01:17;10.85;;;7.78;;
60018;SDS011;45870;42.528;26.740;2023-04-01T21:06:57;12.15;;;9.07;;
60018;SDS011;45870;42.528;26.740;2023-04-01T21:20:18;15.27;;;12.15;;
60018;SDS011;45870;42.528;26.740;2023-04-01T21:41:12;22.65;;;17.65;;
60018;SDS011;45870;42.528;26.740;2023-04-01T21:43:56;23.73;;;17.13;;
60018;SDS011;45870;42.528;26.740;2023-04-01T22:06:32;24.77;;;15.82;;
60018;SDS011;45870;42.528;26.740;2023-04-01T22:11:46;27.65;;;15.25;;
60018;SDS011;45870;42.528;26.740;2023-04-01T22:14:31;22.13;;;15.40;;
60018;SDS011;45870;42.528;26.740;2023-04-01T22:17:13;19.13;;;14.20;;
60018;SDS011;45870;42.528;26.740;2023-04-01T22:20:04;21.48;;;15.30;;
60018;SDS011;45870;42.528;26.740;2023-04-01T22:28:22;14.27;;;9.48;;
60018;SDS011;45870;42.528;26.740;2023-04-01T22:31:00;13.32;;;8.85;;
60018;SDS011;45870;42.528;26.740;2023-04-01T22:33:48;13.18;;;8.07;;
60018;SDS011;45870;42.528;26.740;2023-04-01T22:37:03;13.80;;;9.15;;
60018;SDS011;45870;42.528;26.740;2023-04-01T22:39:53;16.63;;;9.75;;
60018;SDS011;45870;42.528;26.740;2023-04-01T22:51:01;14.55;;;7.32;;
60018;SDS011;45870;42.528;26.740;2023-04-01T22:56:36;11.32;;;6.82;;
60018;SDS011;45870;42.528;26.740;2023-04-01T22:59:19;8.23;;;6.10;;
60018;SDS011;45870;42.528;26.740;2023-04-01T23:01:52;11.30;;;6.75;;
60018;SDS011;45870;42.528;26.740;2023-04-01T23:04:23;10.10;;;6.53;;
60018;SDS011;45870;42.528;26.740;2023-04-01T23:06:56;10.43;;;6.90;;
60018;SDS011;45870;42.528;26.740;2023-04-01T23:09:26;10.23;;;6.50;;
60018;SDS011;45870;42.528;26.740;2023-04-01T23:12:13;8.85;;;6.28;;
60018;SDS011;45870;42.528;26.740;2023-04-01T23:14:43;8.98;;;6.03;;
60018;SDS011;45870;42.528;26.740;2023-04-01T23:17:31;9.02;;;6.32;;
60018;SDS011;45870;42.528;26.740;2023-04-01T23:25:46;9.93;;;6.97;;
60018;SDS011;45870;42.528;26.740;2023-04-01T23:28:20;10.15;;;6.80;;
60018;SDS011;45870;42.528;26.740;2023-04-01T23:30:53;11.55;;;6.82;;
60018;SDS011;45870;42.528;26.740;2023-04-01T23:38:38;11.90;;;7.07;;
60018;SDS011;45870;42.528;26.740;2023-04-01T23:41:06;8.60;;;6.15;;
60018;SDS011;45870;42.528;26.740;2023-04-01T23:46:19;9.20;;;5.97;;
60018;SDS011;45870;42.528;26.740;2023-04-01T23:48:46;8.50;;;5.70;;
60018;SDS011;45870;42.528;26.740;2023-04-01T23:51:20;7.53;;;5.30;;
60018;SDS011;45870;42.528;26.740;2023-04-01T23:53:55;7.47;;;4.80;;
60018;SDS011;45870;42.528;26.740;2023-04-01T23:56:43;5.97;;;4.15;;
60018;SDS011;45870;42.528;26.740;2023-04-01T23:59:17;6.63;;;3.92;;
